Time;durP1;ratioP1;P1;durP2;ratioP2;P2;SDS_P1;SDS_P2;PMS_P1;PMS_P2;Temp;Humidity;BMP_temperature;BMP_pressure;BME280_temperature;BME280_humidity;BME280_pressure;Samples;Min_cycle;Max_cycle;Signal;HPM_P1;HPM_P2
2023/07/08 00:00:27;;;;;;;6.05;3.80;;;18.20;99.90;;;;;;5091102;28;20508;-70
2023/07/08 00:02:53;;;;;;;5.15;3.17;;;18.20;99.90;;;;;;5091589;28;20590;-68
2023/07/08 00:05:20;;;;;;;6.57;3.40;;;18.20;99.90;;;;;;5092531;28;20127;-69
2023/07/08 00:07:47;;;;;;;6.88;3.30;;;18.10;99.90;;;;;;5090832;28;20051;-68
2023/07/08 00:10:21;;;;;;;7.25;3.65;;;18.10;99.90;;;;;;5092527;28;20040;-69
2023/07/08 00:12:53;;;;;;;5.30;3.22;;;18.10;99.90;;;;;;5092607;28;20040;-69
2023/07/08 00:15:22;;;;;;;4.70;3.40;;;18.10;99.90;;;;;;5092464;28;20107;-68
2023/07/08 00:17:47;;;;;;;5.32;3.13;;;18.10;99.90;;;;;;5092200;28;20036;-69
2023/07/08 00:20:21;;;;;;;6.90;3.55;;;18.10;99.90;;;;;;5092418;28;20046;-68
2023/07/08 00:22:52;;;;;;;9.45;3.10;;;18.00;99.90;;;;;;5092483;28;20040;-69
2023/07/08 00:25:21;;;;;;;8.98;3.40;;;18.00;99.90;;;;;;5092340;28;20036;-68
2023/07/08 00:27:47;;;;;;;8.00;3.72;;;18.00;99.90;;;;;;5091988;28;20043;-68
2023/07/08 00:30:28;;;;;;;10.07;3.97;;;18.00;99.90;;;;;;5092225;28;20044;-68
2023/07/08 00:32:54;;;;;;;6.97;3.30;;;18.00;99.90;;;;;;5092170;28;20505;-68
2023/07/08 00:35:33;;;;;;;6.75;3.60;;;18.00;99.90;;;;;;5092224;28;20079;-68
2023/07/08 00:38:01;;;;;;;5.68;3.33;;;18.00;99.90;;;;;;5091916;28;20036;-68
2023/07/08 00:40:32;;;;;;;7.70;3.65;;;18.00;99.90;;;;;;5091581;28;20483;-68
2023/07/08 00:43:02;;;;;;;5.35;3.40;;;18.00;99.90;;;;;;5092374;28;20036;-68
2023/07/08 00:45:48;;;;;;;6.18;3.30;;;18.00;99.90;;;;;;5091809;28;20107;-68
2023/07/08 00:48:28;;;;;;;4.40;2.95;;;18.00;99.90;;;;;;5091614;28;20036;-69
2023/07/08 00:50:54;;;;;;;5.85;3.00;;;18.00;99.90;;;;;;5091444;28;20507;-68
2023/07/08 00:53:24;;;;;;;5.72;3.40;;;18.00;99.90;;;;;;5092030;28;20043;-68
2023/07/08 00:55:54;;;;;;;6.28;3.28;;;18.00;99.90;;;;;;5091824;28;20052;-69
2023/07/08 00:58:23;;;;;;;8.43;3.80;;;18.10;99.90;;;;;;5090307;28;20047;-68
2023/07/08 01:00:51;;;;;;;4.72;3.70;;;18.00;99.90;;;;;;5091554;28;20048;-68
2023/07/08 01:03:18;;;;;;;28.55;5.72;;;18.00;99.90;;;;;;5091722;28;20078;-69
2023/07/08 01:05:46;;;;;;;6.25;3.53;;;18.00;99.90;;;;;;5091651;28;20040;-68
2023/07/08 01:08:12;;;;;;;5.63;3.25;;;18.00;99.90;;;;;;5090440;28;20044;-68
2023/07/08 01:10:45;;;;;;;6.50;4.00;;;17.90;99.90;;;;;;5091302;28;20039;-69
2023/07/08 01:13:14;;;;;;;4.63;3.35;;;17.90;99.90;;;;;;5091642;28;20043;-68
2023/07/08 01:15:44;;;;;;;7.57;3.90;;;18.00;99.90;;;;;;5091629;28;20039;-68
2023/07/08 01:18:16;;;;;;;6.18;3.97;;;17.90;99.90;;;;;;5091628;28;20044;-69
2023/07/08 01:20:42;;;;;;;11.90;4.07;;;17.90;99.90;;;;;;5091413;28;20039;-68
2023/07/08 01:23:10;;;;;;;5.30;3.22;;;17.90;99.90;;;;;;5091680;28;20039;-68
2023/07/08 01:25:36;;;;;;;5.78;3.78;;;17.90;99.90;;;;;;5091603;28;20083;-68
2023/07/08 01:28:03;;;;;;;6.97;3.95;;;17.90;99.90;;;;;;5091306;28;20068;-69
2023/07/08 01:30:29;;;;;;;7.38;3.55;;;17.80;99.90;;;;;;5090013;28;20051;-68
2023/07/08 01:32:59;;;;;;;5.63;3.83;;;17.80;99.90;;;;;;5073520;28;20547;-68
2023/07/08 01:35:25;;;;;;;7.43;4.10;;;17.80;99.90;;;;;;5091569;28;20038;-68
2023/07/08 01:37:58;;;;;;;7.47;3.90;;;17.80;99.90;;;;;;5089837;28;20418;-68
2023/07/08 01:40:33;;;;;;;7.40;3.60;;;17.80;99.90;;;;;;5091153;28;20061;-68
2023/07/08 01:43:00;;;;;;;5.53;4.05;;;17.70;99.90;;;;;;5091344;28;20036;-69
2023/07/08 01:45:30;;;;;;;7.53;4.00;;;17.70;99.90;;;;;;5091396;28;20399;-68
2023/07/08 01:48:03;;;;;;;4.75;3.47;;;17.70;99.90;;;;;;5091223;28;20453;-68
2023/07/08 01:50:30;;;;;;;5.13;3.95;;;17.80;99.90;;;;;;5091083;28;20448;-66
2023/07/08 01:52:58;;;;;;;6.35;4.22;;;17.70;99.90;;;;;;5091214;28;20096;-65
2023/07/08 01:55:25;;;;;;;8.23;4.28;;;17.70;99.90;;;;;;5091198;28;20448;-66
2023/07/08 01:57:52;;;;;;;5.80;3.70;;;17.70;99.90;;;;;;5091266;28;20067;-67
2023/07/08 02:00:18;;;;;;;5.82;4.35;;;17.70;99.90;;;;;;5091019;28;20040;-66
2023/07/08 02:02:44;;;;;;;5.65;4.40;;;17.70;99.90;;;;;;5091382;28;20039;-68
2023/07/08 02:05:09;;;;;;;7.43;4.45;;;17.60;99.90;;;;;;5091155;28;20036;-67
2023/07/08 02:07:35;;;;;;;6.75;4.03;;;17.60;99.90;;;;;;5090807;28;20035;-67
2023/07/08 02:10:01;;;;;;;5.90;3.70;;;17.60;99.90;;;;;;5091006;28;20044;-67
2023/07/08 02:12:26;;;;;;;5.50;3.92;;;17.60;99.90;;;;;;5089386;28;20050;-68
2023/07/08 02:14:52;;;;;;;6.30;4.63;;;17.50;99.90;;;;;;5092026;28;20123;-67
2023/07/08 02:17:17;;;;;;;6.10;4.05;;;17.50;99.90;;;;;;5094542;28;20039;-68
2023/07/08 02:19:43;;;;;;;8.05;4.40;;;17.50;99.90;;;;;;5094986;28;20040;-68
2023/07/08 02:22:09;;;;;;;8.93;5.00;;;17.50;99.90;;;;;;5094342;28;20039;-67
2023/07/08 02:24:35;;;;;;;7.32;4.20;;;17.50;99.90;;;;;;5094644;28;20398;-67
2023/07/08 02:27:01;;;;;;;5.95;4.20;;;17.40;99.90;;;;;;5094819;28;20040;-67
2023/07/08 02:29:26;;;;;;;6.32;3.88;;;17.30;99.90;;;;;;5094429;28;20032;-67
2023/07/08 02:31:52;;;;;;;5.85;4.32;;;17.30;99.90;;;;;;5094188;28;20040;-67
2023/07/08 02:34:18;;;;;;;7.55;3.75;;;17.30;99.90;;;;;;5093417;28;20051;-67
2023/07/08 02:36:44;;;;;;;8.63;4.22;;;17.30;99.90;;;;;;5094339;28;20072;-67
2023/07/08 02:39:10;;;;;;;8.55;4.30;;;17.30;99.90;;;;;;5094061;28;20074;-67
2023/07/08 02:41:36;;;;;;;6.32;4.28;;;17.20;99.90;;;;;;5093988;28;20388;-67
2023/07/08 02:44:02;;;;;;;8.98;4.85;;;17.20;99.90;;;;;;5094501;28;20043;-67
2023/07/08 02:46:28;;;;;;;5.70;3.95;;;17.10;99.90;;;;;;5093685;28;20515;-66
2023/07/08 02:48:53;;;;;;;6.93;4.13;;;17.10;99.90;;;;;;5093986;28;20036;-68
2023/07/08 02:51:19;;;;;;;8.75;4.10;;;17.10;99.90;;;;;;5093759;28;20100;-67
2023/07/08 02:53:44;;;;;;;6.90;4.57;;;17.10;99.90;;;;;;5093954;28;20032;-67
2023/07/08 02:56:10;;;;;;;7.07;5.00;;;17.00;99.90;;;;;;5093019;28;20117;-67
2023/07/08 02:58:36;;;;;;;7.70;4.60;;;16.90;99.90;;;;;;5093719;28;20093;-68
2023/07/08 03:01:01;;;;;;;8.13;4.78;;;16.90;99.90;;;;;;5093743;28;20075;-67
2023/07/08 03:03:31;;;;;;;9.75;4.13;;;16.90;99.90;;;;;;5094013;28;20140;-68
2023/07/08 03:06:05;;;;;;;6.70;4.60;;;16.90;99.90;;;;;;5093867;28;20047;-67
2023/07/08 03:08:31;;;;;;;8.43;5.10;;;16.80;99.90;;;;;;5093413;28;20407;-67
2023/07/08 03:10:59;;;;;;;9.75;5.32;;;16.80;99.90;;;;;;5093270;28;20040;-68
2023/07/08 03:13:26;;;;;;;7.88;4.70;;;16.80;99.90;;;;;;5093770;28;20047;-67
2023/07/08 03:15:52;;;;;;;8.73;5.15;;;16.70;99.90;;;;;;5093749;28;20036;-67
2023/07/08 03:18:17;;;;;;;12.43;5.00;;;16.70;99.90;;;;;;5093350;28;20032;-67
2023/07/08 03:20:44;;;;;;;7.32;5.25;;;16.70;99.90;;;;;;5093191;28;20036;-67
2023/07/08 03:23:11;;;;;;;8.02;5.28;;;16.60;99.90;;;;;;5093652;28;20048;-67
2023/07/08 03:25:37;;;;;;;12.38;5.00;;;16.50;99.90;;;;;;5093516;28;20032;-67
2023/07/08 03:28:05;;;;;;;9.07;5.13;;;16.50;99.90;;;;;;5092336;28;20036;-67
2023/07/08 03:30:32;;;;;;;9.70;4.90;;;16.50;99.90;;;;;;5091785;28;20045;-67
2023/07/08 03:32:58;;;;;;;8.10;4.97;;;16.40;99.90;;;;;;5093270;28;20040;-67
2023/07/08 03:35:23;;;;;;;8.05;4.85;;;16.50;99.90;;;;;;5093179;28;20160;-67
2023/07/08 03:37:49;;;;;;;7.88;5.35;;;16.50;99.90;;;;;;5093097;28;20506;-67
2023/07/08 03:40:14;;;;;;;6.93;5.10;;;16.40;99.90;;;;;;5092973;28;20047;-67
2023/07/08 03:42:40;;;;;;;7.88;5.00;;;16.40;99.90;;;;;;5093355;28;20050;-68
2023/07/08 03:45:06;;;;;;;6.63;5.07;;;16.40;99.90;;;;;;5093142;28;20050;-67
2023/07/08 03:47:31;;;;;;;8.75;5.70;;;16.40;99.90;;;;;;5101202;22;20124;-69
2023/07/08 03:49:57;;;;;;;8.48;5.15;;;16.40;99.90;;;;;;5072653;28;20464;-69
2023/07/08 03:52:23;;;;;;;6.25;4.70;;;16.40;99.90;;;;;;5072400;28;20068;-69
2023/07/08 03:54:49;;;;;;;7.55;5.05;;;16.40;99.90;;;;;;5066750;28;20045;-69
2023/07/08 03:57:14;;;;;;;8.05;5.25;;;16.40;99.90;;;;;;5068731;28;20064;-69
2023/07/08 03:59:40;;;;;;;9.75;5.28;;;16.40;99.90;;;;;;5072403;28;20055;-69
2023/07/08 04:02:05;;;;;;;7.63;5.00;;;16.50;99.90;;;;;;5071952;28;20036;-69
2023/07/08 04:04:31;;;;;;;7.95;4.65;;;16.50;99.90;;;;;;5072355;28;20066;-69
2023/07/08 04:06:56;;;;;;;8.75;5.28;;;16.50;99.90;;;;;;5072454;28;20673;-69
2023/07/08 04:09:22;;;;;;;10.20;5.38;;;16.50;99.90;;;;;;5071990;28;20044;-69
2023/07/08 04:11:48;;;;;;;7.07;4.88;;;16.50;99.90;;;;;;5071934;28;20039;-69
2023/07/08 04:14:13;;;;;;;7.75;5.53;;;16.50;99.90;;;;;;5072301;28;20033;-69
2023/07/08 04:16:45;;;;;;;6.32;4.88;;;16.50;99.90;;;;;;5072177;28;20135;-69
2023/07/08 04:19:12;;;;;;;7.65;5.60;;;16.60;99.90;;;;;;5071774;28;20040;-69
2023/07/08 04:21:38;;;;;;;7.15;5.78;;;16.60;99.90;;;;;;5071750;28;20436;-69
2023/07/08 04:24:04;;;;;;;10.05;5.32;;;16.60;99.90;;;;;;5072282;28;20121;-69
2023/07/08 04:26:29;;;;;;;7.75;5.30;;;16.60;99.90;;;;;;5072075;28;20500;-69
2023/07/08 04:28:55;;;;;;;9.07;5.72;;;16.60;99.90;;;;;;5071798;28;20044;-69
2023/07/08 04:31:20;;;;;;;8.05;5.28;;;16.60;99.90;;;;;;5071360;28;20040;-69
2023/07/08 04:33:46;;;;;;;11.13;6.75;;;16.60;99.90;;;;;;5071794;28;20041;-69
2023/07/08 04:36:13;;;;;;;9.60;5.43;;;16.70;99.90;;;;;;5070792;28;20115;-69
2023/07/08 04:38:41;;;;;;;13.18;6.38;;;16.80;99.90;;;;;;5071479;28;20048;-69
2023/07/08 04:41:06;;;;;;;7.32;5.03;;;16.80;99.90;;;;;;5071397;28;20043;-69
2023/07/08 04:43:32;;;;;;;10.43;4.95;;;16.90;99.90;;;;;;5071808;28;20040;-69
2023/07/08 04:45:58;;;;;;;7.63;5.47;;;17.00;99.90;;;;;;5071613;28;20043;-69
2023/07/08 04:48:24;;;;;;;9.55;5.80;;;17.00;99.90;;;;;;5071184;28;20040;-69
2023/07/08 04:50:51;;;;;;;11.25;5.78;;;17.10;99.90;;;;;;5071541;28;20076;-69
2023/07/08 04:53:17;;;;;;;6.28;4.88;;;17.30;99.90;;;;;;5071747;28;20040;-69
2023/07/08 04:55:49;;;;;;;9.65;5.32;;;17.40;99.90;;;;;;5071707;28;20115;-69
2023/07/08 04:58:14;;;;;;;8.88;5.18;;;17.50;99.90;;;;;;5071363;28;20067;-68
2023/07/08 05:00:40;;;;;;;10.38;5.57;;;17.70;99.90;;;;;;5071104;28;20411;-69
2023/07/08 05:03:06;;;;;;;9.98;5.22;;;17.90;99.90;;;;;;5071740;28;20091;-69
2023/07/08 05:05:31;;;;;;;7.68;5.05;;;18.10;99.90;;;;;;5071824;28;20392;-69
2023/07/08 05:07:57;;;;;;;7.45;4.65;;;18.20;99.90;;;;;;5053141;28;20400;-68
2023/07/08 05:10:22;;;;;;;7.45;4.78;;;18.40;99.90;;;;;;5071261;28;20076;-68
2023/07/08 05:12:48;;;;;;;8.07;5.00;;;18.60;99.90;;;;;;5071291;28;20051;-69
2023/07/08 05:15:15;;;;;;;7.35;4.93;;;18.70;99.90;;;;;;5071437;28;20041;-69
2023/07/08 05:17:41;;;;;;;9.50;5.45;;;18.90;99.90;;;;;;5071037;28;20054;-69
2023/07/08 05:20:09;;;;;;;6.50;4.45;;;19.00;99.90;;;;;;5071595;28;20036;-69
2023/07/08 05:22:35;;;;;;;11.02;4.60;;;19.20;99.90;;;;;;5071161;28;20032;-69
2023/07/08 05:25:02;;;;;;;7.07;4.28;;;19.30;99.90;;;;;;5071460;28;20411;-69
2023/07/08 05:27:27;;;;;;;7.30;4.57;;;19.50;99.90;;;;;;5070968;28;20037;-69
2023/07/08 05:29:53;;;;;;;7.70;4.18;;;19.70;99.90;;;;;;5071224;28;20033;-69
2023/07/08 05:32:19;;;;;;;8.13;4.35;;;19.80;99.90;;;;;;5070749;28;20048;-69
2023/07/08 05:34:45;;;;;;;8.90;5.05;;;20.00;99.90;;;;;;5071461;28;20036;-69
2023/07/08 05:37:11;;;;;;;5.95;4.30;;;20.10;99.90;;;;;;5071046;28;20116;-69
2023/07/08 05:39:37;;;;;;;7.13;4.38;;;20.30;99.90;;;;;;5053223;28;20040;-69
2023/07/08 05:42:03;;;;;;;8.20;4.82;;;20.40;99.90;;;;;;5070914;28;20055;-69
2023/07/08 05:44:29;;;;;;;5.47;3.95;;;20.60;99.90;;;;;;5070989;28;20094;-68
2023/07/08 05:46:54;;;;;;;5.97;4.00;;;20.70;99.30;;;;;;5071090;28;20075;-69
2023/07/08 05:49:20;;;;;;;6.63;4.05;;;20.70;99.10;;;;;;5071054;28;20105;-69
2023/07/08 05:51:45;;;;;;;6.78;3.83;;;20.90;98.50;;;;;;5074575;28;20072;-69
2023/07/08 05:54:11;;;;;;;8.70;3.85;;;21.00;98.10;;;;;;5074996;28;20040;-68
2023/07/08 05:56:37;;;;;;;5.90;3.75;;;21.20;97.70;;;;;;5074885;28;20048;-67
2023/07/08 05:59:03;;;;;;;6.43;4.80;;;21.50;97.50;;;;;;5074388;28;20036;-67
2023/07/08 06:01:29;;;;;;;6.95;3.28;;;21.70;97.10;;;;;;5074231;28;20622;-67
2023/07/08 06:03:57;;;;;;;5.45;3.53;;;22.00;96.90;;;;;;5071436;28;20039;-66
2023/07/08 06:06:24;;;;;;;5.85;4.50;;;22.20;96.00;;;;;;5069022;28;20039;-68
2023/07/08 06:08:49;;;;;;;5.85;3.85;;;22.30;95.40;;;;;;5073035;28;20040;-68
2023/07/08 06:11:15;;;;;;;8.50;4.13;;;22.30;94.90;;;;;;5073866;28;20047;-69
2023/07/08 06:13:40;;;;;;;6.80;3.83;;;22.40;94.50;;;;;;5072261;28;20066;-69
2023/07/08 06:16:06;;;;;;;6.68;3.90;;;22.60;94.20;;;;;;5069591;28;20507;-67
2023/07/08 06:18:31;;;;;;;6.03;4.10;;;22.70;93.70;;;;;;5073387;28;20456;-68
2023/07/08 06:20:58;;;;;;;6.28;3.85;;;22.70;93.30;;;;;;5067222;28;20467;-68
2023/07/08 06:23:24;;;;;;;7.80;3.58;;;22.70;93.30;;;;;;5074300;28;20126;-66
2023/07/08 06:25:51;;;;;;;5.32;3.53;;;23.00;93.20;;;;;;5074005;28;20385;-67
2023/07/08 06:28:17;;;;;;;3.83;3.10;;;23.00;92.40;;;;;;5065024;28;20047;-68
2023/07/08 06:30:43;;;;;;;5.85;3.92;;;23.20;91.80;;;;;;5054705;28;20044;-68
2023/07/08 06:33:10;;;;;;;4.70;2.97;;;23.40;91.30;;;;;;5071209;28;20052;-68
2023/07/08 06:35:37;;;;;;;5.22;3.55;;;23.50;90.70;;;;;;5074201;28;20040;-68
2023/07/08 06:38:02;;;;;;;5.88;3.45;;;23.60;90.40;;;;;;5068933;28;20032;-69
2023/07/08 06:40:28;;;;;;;5.97;3.75;;;23.60;89.80;;;;;;5063839;28;21056;-66
2023/07/08 06:42:53;;;;;;;5.95;3.70;;;23.80;88.40;;;;;;5073434;28;20400;-66
2023/07/08 06:45:19;;;;;;;6.03;3.30;;;23.90;87.40;;;;;;5073556;28;20554;-66
2023/07/08 06:47:46;;;;;;;4.45;3.03;;;24.00;85.60;;;;;;5073289;28;20036;-68
2023/07/08 06:50:11;;;;;;;7.45;3.67;;;24.00;85.90;;;;;;5073152;28;20098;-67
2023/07/08 06:52:37;;;;;;;7.25;3.78;;;24.00;84.70;;;;;;5068714;28;20036;-66
2023/07/08 06:55:06;;;;;;;6.38;3.33;;;24.10;85.40;;;;;;5073845;28;20439;-67
2023/07/08 06:57:32;;;;;;;4.10;2.75;;;24.40;84.00;;;;;;5072219;28;20039;-68
2023/07/08 06:59:58;;;;;;;4.65;3.40;;;24.50;82.90;;;;;;5063474;28;20033;-67
2023/07/08 07:02:24;;;;;;;6.22;3.40;;;24.60;81.90;;;;;;5073047;28;20500;-67
2023/07/08 07:04:49;;;;;;;6.25;2.88;;;24.70;81.40;;;;;;5073665;28;20041;-67
2023/07/08 07:07:15;;;;;;;6.63;3.33;;;24.80;80.50;;;;;;5067490;28;20116;-67
2023/07/08 07:09:41;;;;;;;4.93;3.10;;;24.90;79.00;;;;;;5054113;28;20500;-67
2023/07/08 07:12:07;;;;;;;3.38;2.67;;;24.70;78.90;;;;;;5069384;28;20029;-68
2023/07/08 07:14:33;;;;;;;7.13;3.42;;;24.80;78.80;;;;;;5070423;28;20036;-67
2023/07/08 07:16:59;;;;;;;4.65;2.85;;;24.90;77.60;;;;;;5072399;28;20037;-67
2023/07/08 07:19:25;;;;;;;4.60;3.08;;;25.10;77.10;;;;;;5070350;28;20496;-68
2023/07/08 07:21:51;;;;;;;3.55;2.78;;;25.30;75.60;;;;;;5067864;28;20052;-67
2023/07/08 07:24:17;;;;;;;6.90;3.15;;;25.30;74.80;;;;;;5069314;28;20052;-67
2023/07/08 07:26:43;;;;;;;4.00;2.60;;;25.30;73.60;;;;;;5072801;28;20048;-67
2023/07/08 07:29:09;;;;;;;6.53;3.05;;;25.30;73.80;;;;;;5063718;28;20040;-67
2023/07/08 07:31:34;;;;;;;4.60;3.13;;;25.20;72.50;;;;;;5072625;28;20033;-67
2023/07/08 07:34:01;;;;;;;6.00;3.03;;;25.40;72.60;;;;;;5065851;28;20118;-68
2023/07/08 07:36:28;;;;;;;5.05;3.03;;;25.50;72.00;;;;;;5070776;28;20535;-68
2023/07/08 07:38:54;;;;;;;4.55;3.22;;;25.30;71.40;;;;;;5072628;28;20050;-67
2023/07/08 07:41:21;;;;;;;4.65;3.38;;;25.40;71.10;;;;;;5067524;28;20029;-67
2023/07/08 07:43:46;;;;;;;4.07;2.85;;;25.60;71.60;;;;;;5070077;28;20037;-68
2023/07/08 07:46:12;;;;;;;6.05;2.92;;;25.70;71.10;;;;;;5069526;28;20032;-68
2023/07/08 07:48:38;;;;;;;4.68;3.45;;;25.90;71.30;;;;;;5054174;28;20063;-68
2023/07/08 07:51:05;;;;;;;6.35;3.58;;;26.00;69.90;;;;;;5072364;28;20044;-68
2023/07/08 07:53:31;;;;;;;6.35;3.50;;;25.90;69.50;;;;;;5071854;28;20043;-68
2023/07/08 07:56:01;;;;;;;3.65;3.08;;;25.80;69.80;;;;;;5062909;28;20650;-68
2023/07/08 07:58:27;;;;;;;5.55;3.08;;;25.90;69.50;;;;;;5071330;28;20427;-67
2023/07/08 08:00:53;;;;;;;5.68;3.53;;;26.00;69.60;;;;;;5068739;28;20040;-68
2023/07/08 08:03:19;;;;;;;6.03;2.95;;;26.10;68.30;;;;;;5072405;28;20067;-68
2023/07/08 08:05:45;;;;;;;5.70;3.85;;;26.10;68.90;;;;;;5071352;28;20461;-67
2023/07/08 08:08:11;;;;;;;4.55;3.22;;;26.10;68.60;;;;;;5069003;28;20066;-68
2023/07/08 08:10:36;;;;;;;4.65;3.20;;;26.20;69.00;;;;;;5071610;28;20045;-68
2023/07/08 08:13:03;;;;;;;5.60;2.97;;;26.30;68.40;;;;;;5065848;28;20045;-68
2023/07/08 08:15:28;;;;;;;4.13;3.25;;;26.40;68.10;;;;;;5070240;28;20158;-67
2023/07/08 08:17:54;;;;;;;5.53;3.25;;;26.50;67.00;;;;;;5069210;28;20068;-68
2023/07/08 08:20:24;;;;;;;6.03;3.05;;;26.70;66.00;;;;;;5066761;28;20130;-67
2023/07/08 08:22:50;;;;;;;6.78;3.30;;;26.80;66.40;;;;;;5070147;28;20048;-67
2023/07/08 08:25:17;;;;;;;5.75;2.90;;;26.80;66.30;;;;;;5055907;28;20093;-67
2023/07/08 08:27:43;;;;;;;3.97;2.90;;;27.00;65.30;;;;;;5063690;28;20541;-67
2023/07/08 08:30:10;;;;;;;4.97;3.00;;;27.10;65.10;;;;;;5071867;28;20112;-68
2023/07/08 08:32:35;;;;;;;4.50;3.35;;;27.10;64.70;;;;;;5062370;28;20428;-67
2023/07/08 08:35:01;;;;;;;6.45;2.97;;;27.30;64.30;;;;;;5070209;28;20045;-68
2023/07/08 08:37:27;;;;;;;8.50;3.28;;;27.50;63.90;;;;;;5071092;28;20028;-67
2023/07/08 08:39:52;;;;;;;4.55;3.05;;;27.60;63.90;;;;;;5070672;28;20589;-67
2023/07/08 08:42:33;;;;;;;3.75;2.72;;;27.90;63.70;;;;;;5058782;28;20041;-68
2023/07/08 08:45:01;;;;;;;3.47;2.63;;;27.90;61.80;;;;;;5071589;28;20040;-68
2023/07/08 08:47:42;;;;;;;6.13;2.83;;;28.00;61.80;;;;;;5069239;28;20496;-68
2023/07/08 08:50:26;;;;;;;6.53;3.03;;;28.10;61.60;;;;;;5067140;28;20603;-67
2023/07/08 08:52:54;;;;;;;4.45;3.35;;;28.40;61.10;;;;;;5065381;28;20040;-68
2023/07/08 08:55:23;;;;;;;5.25;3.25;;;28.10;59.20;;;;;;5068352;28;20517;-68
2023/07/08 08:58:14;;;;;;;4.60;2.70;;;28.20;59.30;;;;;;5060350;28;20048;-68
2023/07/08 09:00:43;;;;;;;5.97;4.10;;;28.20;59.30;;;;;;5071113;28;20059;-68
2023/07/08 09:03:14;;;;;;;3.25;2.60;;;28.30;58.70;;;;;;5070213;28;20507;-69
2023/07/08 09:05:41;;;;;;;4.80;2.83;;;28.20;58.20;;;;;;5071441;28;20044;-69
2023/07/08 09:08:20;;;;;;;4.18;2.75;;;28.30;58.10;;;;;;5071209;28;20050;-69
2023/07/08 09:11:17;;;;;;;4.03;2.75;;;28.30;57.20;;;;;;5070847;28;20531;-69
2023/07/08 09:13:42;;;;;;;4.60;2.60;;;28.30;55.50;;;;;;5051513;28;20045;-68
2023/07/08 09:16:37;;;;;;;7.45;2.90;;;28.40;55.80;;;;;;5035132;28;20106;-69
2023/07/08 09:19:11;;;;;;;3.78;2.95;;;28.50;55.10;;;;;;5065629;28;20036;-69
2023/07/08 09:21:51;;;;;;;5.97;3.00;;;28.70;55.10;;;;;;5071353;28;20037;-68
2023/07/08 09:24:44;;;;;;;4.80;3.20;;;28.80;54.90;;;;;;5071802;28;20491;-69
2023/07/08 09:27:10;;;;;;;4.65;2.60;;;29.20;53.90;;;;;;5063211;28;20524;-69
2023/07/08 09:29:36;;;;;;;6.40;3.30;;;29.30;53.90;;;;;;5075296;28;20098;-69
2023/07/08 09:32:22;;;;;;;4.28;2.83;;;29.20;53.50;;;;;;5075233;28;20047;-69
2023/07/08 09:34:56;;;;;;;4.00;2.70;;;29.40;52.80;;;;;;5075468;28;20062;-69
2023/07/08 09:37:23;;;;;;;4.05;2.65;;;29.50;53.20;;;;;;5070217;28;20488;-69
2023/07/08 09:39:49;;;;;;;4.75;3.38;;;29.60;53.10;;;;;;5075281;28;20063;-70
2023/07/08 09:42:16;;;;;;;5.40;3.05;;;29.50;52.40;;;;;;5072860;28;20068;-69
2023/07/08 09:44:43;;;;;;;4.65;2.97;;;29.40;51.50;;;;;;5074534;28;20043;-69
2023/07/08 09:47:26;;;;;;;6.30;3.38;;;29.40;51.40;;;;;;5093701;22;20040;-68
2023/07/08 09:49:52;;;;;;;5.70;3.00;;;29.30;50.90;;;;;;5074843;28;20094;-67
2023/07/08 09:52:18;;;;;;;5.53;2.70;;;29.30;52.80;;;;;;5068828;28;20066;-67
2023/07/08 09:54:45;;;;;;;7.78;3.03;;;29.40;53.10;;;;;;5070138;28;20492;-67
2023/07/08 09:57:28;;;;;;;8.30;3.13;;;29.50;51.90;;;;;;5070394;28;20032;-67
2023/07/08 10:00:02;;;;;;;5.90;2.75;;;29.50;51.20;;;;;;5073780;28;20068;-67
2023/07/08 10:02:54;;;;;;;4.28;3.30;;;29.50;52.00;;;;;;5064936;28;20543;-67
2023/07/08 10:05:27;;;;;;;5.43;3.23;;;29.50;51.00;;;;;;5074590;28;20044;-68
2023/07/08 10:07:54;;;;;;;4.70;3.08;;;29.40;51.80;;;;;;5073081;28;20098;-67
2023/07/08 10:10:34;;;;;;;3.45;2.80;;;29.30;51.40;;;;;;5073245;28;20041;-67
2023/07/08 10:13:16;;;;;;;6.18;3.10;;;29.30;50.50;;;;;;5073778;28;20530;-67
2023/07/08 10:15:48;;;;;;;4.72;2.78;;;29.30;50.80;;;;;;5067310;28;20036;-67
2023/07/08 10:18:16;;;;;;;4.95;2.95;;;29.10;50.00;;;;;;5072417;28;20458;-67
2023/07/08 10:20:49;;;;;;;5.38;3.25;;;29.20;50.50;;;;;;5061585;28;20128;-66
2023/07/08 10:23:32;;;;;;;4.00;3.15;;;29.20;50.20;;;;;;5064954;28;20055;-66
2023/07/08 10:26:26;;;;;;;6.80;3.60;;;29.10;50.70;;;;;;5060374;28;20052;-68
2023/07/08 10:29:19;;;;;;;4.25;3.10;;;29.00;50.50;;;;;;5067165;28;20162;-67
2023/07/08 10:31:59;;;;;;;5.53;3.17;;;29.20;51.20;;;;;;5065911;28;20496;-68
2023/07/08 10:34:36;;;;;;;4.80;3.17;;;29.20;51.00;;;;;;5073231;28;20403;-67
2023/07/08 10:37:10;;;;;;;5.28;3.08;;;29.40;51.20;;;;;;5070533;28;20102;-67
2023/07/08 10:39:54;;;;;;;4.75;3.50;;;29.30;51.40;;;;;;5071387;28;20064;-66
2023/07/08 10:42:44;;;;;;;5.90;3.10;;;29.40;50.90;;;;;;5068969;28;20036;-64
2023/07/08 10:45:16;;;;;;;4.30;3.38;;;29.40;51.10;;;;;;5072141;28;20075;-67
2023/07/08 10:47:59;;;;;;;5.57;2.80;;;29.40;50.60;;;;;;5066688;28;20412;-67
2023/07/08 10:50:55;;;;;;;8.30;3.75;;;29.40;51.00;;;;;;5065321;28;20033;-68
2023/07/08 10:53:56;;;;;;;4.28;3.17;;;29.30;50.20;;;;;;5066988;28;20056;-68
2023/07/08 10:56:34;;;;;;;6.70;3.30;;;29.30;50.90;;;;;;5069529;28;20040;-67
2023/07/08 10:59:44;;;;;;;6.35;3.30;;;29.40;50.80;;;;;;5072694;28;20033;-68
2023/07/08 11:02:31;;;;;;;5.97;3.22;;;29.40;50.60;;;;;;5072045;28;20123;-68
2023/07/08 11:05:33;;;;;;;5.70;3.10;;;29.50;50.40;;;;;;5066158;28;20041;-68
2023/07/08 11:08:06;;;;;;;7.90;3.60;;;29.50;50.90;;;;;;5068525;28;20108;-67
2023/07/08 11:10:46;;;;;;;5.25;3.40;;;29.70;50.70;;;;;;5073367;28;20032;-67
2023/07/08 11:13:18;;;;;;;6.13;3.33;;;29.60;49.30;;;;;;5073534;28;20048;-67
2023/07/08 11:16:03;;;;;;;4.28;3.00;;;29.60;49.70;;;;;;5065851;28;20043;-68
2023/07/08 11:18:53;;;;;;;4.85;3.40;;;29.50;49.90;;;;;;5072581;28;20128;-67
2023/07/08 11:21:27;;;;;;;3.92;3.50;;;29.70;50.00;;;;;;5067699;28;20044;-67
2023/07/08 11:24:00;;;;;;;6.40;3.65;;;29.80;49.80;;;;;;5073181;28;20036;-67
2023/07/08 11:26:29;;;;;;;5.70;3.00;;;29.70;49.60;;;;;;5066825;28;20098;-67
2023/07/08 11:28:57;;;;;;;5.43;3.20;;;29.80;48.60;;;;;;5072398;28;20541;-67
2023/07/08 11:31:25;;;;;;;4.53;3.30;;;29.90;48.70;;;;;;5072533;28;20059;-67
2023/07/08 11:33:52;;;;;;;4.72;3.42;;;29.90;48.80;;;;;;5066195;28;20424;-67
2023/07/08 11:36:20;;;;;;;6.88;3.20;;;29.90;49.50;;;;;;5072897;28;20036;-68
2023/07/08 11:38:51;;;;;;;5.63;3.22;;;30.00;48.60;;;;;;5071243;28;20048;-67
2023/07/08 11:41:20;;;;;;;4.40;3.63;;;30.00;48.80;;;;;;5070407;28;20028;-68
2023/07/08 11:44:06;;;;;;;9.68;3.60;;;29.90;48.90;;;;;;5064194;28;20052;-67
2023/07/08 11:46:34;;;;;;;4.75;3.17;;;30.10;48.50;;;;;;5070718;28;20043;-68
2023/07/08 11:49:11;;;;;;;4.78;3.70;;;30.00;46.90;;;;;;5071567;28;20121;-67
2023/07/08 11:51:41;;;;;;;7.47;3.72;;;29.90;47.30;;;;;;5063209;28;20541;-68
2023/07/08 11:54:14;;;;;;;4.82;3.30;;;29.80;46.40;;;;;;5067924;28;20032;-67
2023/07/08 11:56:55;;;;;;;6.28;3.28;;;29.90;45.90;;;;;;5064811;28;20036;-67
2023/07/08 11:59:23;;;;;;;5.65;3.10;;;30.00;45.10;;;;;;5072201;28;20056;-67
2023/07/08 12:02:13;;;;;;;6.50;3.28;;;30.10;45.00;;;;;;5064754;28;20488;-67
2023/07/08 12:05:01;;;;;;;4.43;3.38;;;30.10;44.70;;;;;;5071064;28;20032;-67
2023/07/08 12:07:37;;;;;;;6.20;3.67;;;30.20;44.40;;;;;;5071247;28;20077;-67
2023/07/08 12:10:13;;;;;;;5.30;3.25;;;30.10;43.40;;;;;;5070166;28;20109;-67
2023/07/08 12:12:42;;;;;;;5.53;3.30;;;30.20;43.40;;;;;;5071608;28;20048;-67
2023/07/08 12:15:29;;;;;;;4.47;3.13;;;30.40;44.10;;;;;;5069021;28;20036;-67
2023/07/08 12:18:03;;;;;;;4.55;3.67;;;30.50;44.50;;;;;;5048374;28;20086;-68
2023/07/08 12:20:35;;;;;;;8.05;3.30;;;30.50;44.50;;;;;;5065817;28;20460;-68
2023/07/08 12:23:01;;;;;;;5.65;3.67;;;30.40;44.20;;;;;;5069759;28;20074;-68
2023/07/08 12:25:32;;;;;;;6.30;3.65;;;30.40;44.10;;;;;;5071038;28;20761;-68
2023/07/08 12:27:58;;;;;;;6.93;3.67;;;30.50;43.50;;;;;;5066727;28;20504;-68
2023/07/08 12:30:25;;;;;;;4.93;3.40;;;30.60;44.00;;;;;;5070840;28;20111;-67
2023/07/08 12:32:51;;;;;;;4.45;3.65;;;30.50;44.00;;;;;;5068445;28;20475;-67
2023/07/08 12:35:22;;;;;;;7.50;3.70;;;30.60;43.80;;;;;;5062510;28;20068;-67
2023/07/08 12:37:50;;;;;;;5.53;3.63;;;30.60;43.70;;;;;;5067881;28;20496;-68
2023/07/08 12:40:15;;;;;;;4.22;3.42;;;30.50;43.00;;;;;;5069957;28;20043;-67
2023/07/08 12:42:41;;;;;;;5.82;3.40;;;30.50;43.10;;;;;;5068830;28;20454;-67
2023/07/08 12:45:15;;;;;;;8.52;3.38;;;30.60;43.80;;;;;;5071382;28;20045;-68
2023/07/08 12:47:41;;;;;;;6.47;4.55;;;30.60;42.90;;;;;;5065980;28;20036;-68
2023/07/08 12:50:09;;;;;;;9.80;3.67;;;30.60;42.60;;;;;;5066485;28;20120;-67
2023/07/08 12:52:35;;;;;;;5.07;3.78;;;30.70;43.30;;;;;;5070962;28;20040;-67
2023/07/08 12:55:00;;;;;;;7.15;4.20;;;30.90;43.60;;;;;;5066210;28;20037;-68
2023/07/08 12:57:26;;;;;;;5.85;3.50;;;30.80;43.00;;;;;;5068310;28;20093;-68